createdAt,value
2018-05-18T00:02:00.916Z,11.00
2018-05-18T00:04:29.001Z,11.23
2018-05-18T00:06:57.147Z,10.60
2018-05-18T00:09:24.809Z,11.53
2018-05-18T00:11:52.564Z,11.60
2018-05-18T00:14:20.232Z,10.40
2018-05-18T00:16:47.902Z,11.70
2018-05-18T00:19:15.551Z,12.03
2018-05-18T00:21:43.222Z,12.07
2018-05-18T00:24:10.888Z,10.47
2018-05-18T00:26:38.537Z,13.30
2018-05-18T00:29:06.199Z,11.80
2018-05-18T00:31:33.889Z,11.97
2018-05-18T00:34:01.968Z,13.47
2018-05-18T00:36:29.629Z,12.33
2018-05-18T00:38:57.718Z,11.07
2018-05-18T00:41:25.505Z,11.90
2018-05-18T00:43:53.161Z,12.53
2018-05-18T00:46:20.880Z,11.27
2018-05-18T00:48:48.517Z,11.07
2018-05-18T00:51:16.221Z,11.47
2018-05-18T00:53:44.288Z,11.10
2018-05-18T00:56:12.359Z,12.77
2018-05-18T00:58:40.424Z,13.23
2018-05-18T01:01:08.535Z,12.30
2018-05-18T01:03:36.266Z,12.73
2018-05-18T01:06:04.362Z,10.27
2018-05-18T01:08:32.033Z,12.47
2018-05-18T01:10:59.688Z,14.20
2018-05-18T01:13:27.625Z,15.40
2018-05-18T01:15:55.777Z,12.53
2018-05-18T01:18:23.417Z,12.83
2018-05-18T01:20:51.078Z,11.93
2018-05-18T01:23:18.804Z,12.67
2018-05-18T01:25:46.569Z,12.17
2018-05-18T01:28:14.351Z,10.53
2018-05-18T01:30:42.038Z,11.40
2018-05-18T01:33:09.700Z,12.60
2018-05-18T01:35:37.423Z,12.40
2018-05-18T01:38:05.112Z,10.43
2018-05-18T01:40:32.782Z,11.33
2018-05-18T01:43:00.519Z,11.90
2018-05-18T01:45:28.198Z,12.30
2018-05-18T01:47:55.867Z,13.50
2018-05-18T01:50:23.601Z,11.17
2018-05-18T01:52:51.282Z,11.50
2018-05-18T01:55:18.949Z,11.10
2018-05-18T01:57:46.623Z,10.40
2018-05-18T02:00:14.309Z,12.10
2018-05-18T02:02:41.965Z,12.00
2018-05-18T02:05:09.685Z,12.37
2018-05-18T02:07:37.354Z,11.30
2018-05-18T02:10:05.017Z,12.47
2018-05-18T02:12:32.759Z,11.20
2018-05-18T02:15:00.836Z,10.30
2018-05-18T02:17:28.498Z,13.67
2018-05-18T02:19:56.149Z,11.77
2018-05-18T02:22:24.246Z,12.10
2018-05-18T02:24:51.902Z,11.87
2018-05-18T02:27:19.557Z,11.60
2018-05-18T02:29:47.309Z,12.20
2018-05-18T02:32:15.409Z,13.60
2018-05-18T02:34:43.156Z,11.90
2018-05-18T02:37:11.591Z,12.13
2018-05-18T02:39:39.249Z,11.73
2018-05-18T02:42:06.917Z,12.20
2018-05-18T02:44:34.635Z,10.50
2018-05-18T02:47:02.572Z,12.50
2018-05-18T02:49:30.638Z,13.63
2018-05-18T02:51:58.341Z,11.47
2018-05-18T02:54:26.005Z,11.27
2018-05-18T02:56:53.747Z,12.10
2018-05-18T02:59:21.831Z,10.90
2018-05-18T03:01:49.546Z,11.53
2018-05-18T03:04:17.204Z,11.60
2018-05-18T03:06:44.878Z,11.17
2018-05-18T03:09:12.534Z,12.00
2018-05-18T03:11:40.192Z,11.50
2018-05-18T03:14:07.856Z,12.13
2018-05-18T03:16:35.572Z,12.23
2018-05-18T03:19:03.310Z,13.10
2018-05-18T03:21:30.997Z,12.43
2018-05-18T03:23:58.667Z,12.30
2018-05-18T03:26:26.399Z,12.03
2018-05-18T03:28:54.473Z,11.87
2018-05-18T03:31:22.547Z,11.70
2018-05-18T03:33:50.617Z,11.70
2018-05-18T03:36:18.704Z,10.47
2018-05-18T03:38:46.386Z,12.60
2018-05-18T03:41:14.157Z,12.07
2018-05-18T03:43:41.903Z,12.40
2018-05-18T03:46:09.663Z,13.30
2018-05-18T03:48:37.423Z,10.93
2018-05-18T03:51:05.235Z,11.33
2018-05-18T03:53:32.893Z,10.47
2018-05-18T03:56:00.634Z,11.13
2018-05-18T03:58:28.305Z,11.33
2018-05-18T04:00:56.012Z,11.30
2018-05-18T04:03:37.252Z,11.67
2018-05-18T04:06:16.731Z,13.23
2018-05-18T04:08:52.990Z,11.10
2018-05-18T04:11:20.655Z,11.53
2018-05-18T04:13:48.342Z,14.10
2018-05-18T04:16:16.015Z,10.63
2018-05-18T04:18:43.762Z,12.73
2018-05-18T04:21:11.425Z,12.17
2018-05-18T04:23:39.522Z,12.10
2018-05-18T04:26:07.277Z,10.80
2018-05-18T04:28:35.070Z,10.00
2018-05-18T04:31:03.202Z,10.40
2018-05-18T04:33:31.280Z,11.60
2018-05-18T04:35:58.948Z,10.40
2018-05-18T04:38:26.719Z,10.50
2018-05-18T04:40:54.365Z,10.37
2018-05-18T04:43:22.482Z,11.33
2018-05-18T04:45:50.157Z,12.30
2018-05-18T04:48:17.824Z,10.30
2018-05-18T04:50:45.507Z,11.27
2018-05-18T04:53:13.192Z,12.10
2018-05-18T04:55:40.945Z,11.40
2018-05-18T04:58:08.981Z,9.67
2018-05-18T05:00:36.659Z,11.13
2018-05-18T05:03:04.320Z,11.63
2018-05-18T05:05:32.051Z,13.70
2018-05-18T05:07:59.684Z,11.17
2018-05-18T05:10:27.425Z,12.00
2018-05-18T05:12:55.484Z,11.37
2018-05-18T05:15:23.156Z,11.73
2018-05-18T05:17:51.255Z,11.30
2018-05-18T05:20:18.999Z,12.03
2018-05-18T05:22:47.098Z,10.83
2018-05-18T05:25:14.737Z,12.23
2018-05-18T05:27:42.789Z,11.03
2018-05-18T05:30:10.569Z,12.57
2018-05-18T05:32:39.449Z,12.20
2018-05-18T05:35:07.488Z,12.40
2018-05-18T05:37:35.149Z,12.77
2018-05-18T05:40:02.849Z,12.17
2018-05-18T05:42:30.891Z,12.57
2018-05-18T05:44:58.564Z,14.37
2018-05-18T05:47:26.204Z,13.47
2018-05-18T05:49:54.023Z,12.90
2018-05-18T05:52:22.145Z,14.20
2018-05-18T05:54:49.792Z,14.80
2018-05-18T05:57:17.512Z,13.70
2018-05-18T05:59:45.569Z,13.53
2018-05-18T06:02:13.205Z,13.83
2018-05-18T06:04:40.898Z,14.70
2018-05-18T06:07:08.562Z,16.03
2018-05-18T06:09:36.714Z,13.43
2018-05-18T06:12:04.408Z,14.27
2018-05-18T06:14:32.545Z,13.83
2018-05-18T06:17:00.234Z,14.33
2018-05-18T06:19:28.334Z,13.00
2018-05-18T06:21:55.969Z,12.93
2018-05-18T06:24:24.036Z,12.57
2018-05-18T06:26:51.744Z,14.03
2018-05-18T06:29:19.474Z,12.73
2018-05-18T06:31:47.541Z,14.50
2018-05-18T06:34:15.611Z,12.00
2018-05-18T06:36:43.699Z,14.03
2018-05-18T06:39:11.794Z,12.87
2018-05-18T06:41:39.436Z,14.13
2018-05-18T06:44:07.182Z,12.30
2018-05-18T06:46:35.259Z,12.50
2018-05-18T06:49:03.330Z,12.40
2018-05-18T06:51:31.388Z,11.20
2018-05-18T06:53:59.029Z,13.03
2018-05-18T06:56:26.673Z,12.90
2018-05-18T06:58:54.385Z,12.60
2018-05-18T07:01:22.413Z,12.57
2018-05-18T07:03:50.147Z,12.70
2018-05-18T07:06:17.823Z,13.90
2018-05-18T07:08:45.460Z,13.30
2018-05-18T07:11:13.223Z,12.13
2018-05-18T07:13:40.912Z,12.20
2018-05-18T07:16:08.528Z,13.07
2018-05-18T07:18:36.612Z,13.60
2018-05-18T07:21:04.771Z,12.57
2018-05-18T07:23:32.432Z,12.40
2018-05-18T07:26:01.200Z,12.00
2018-05-18T07:28:28.900Z,11.23
2018-05-18T07:30:56.955Z,10.33
2018-05-18T07:33:25.035Z,11.03
2018-05-18T07:35:53.103Z,10.13
2018-05-18T07:38:21.170Z,11.27
2018-05-18T07:40:49.205Z,10.13
2018-05-18T07:43:16.879Z,10.40
2018-05-18T07:45:44.574Z,10.67
2018-05-18T07:48:13.262Z,12.37
2018-05-18T07:50:40.920Z,10.10
2018-05-18T07:53:08.990Z,10.10
2018-05-18T07:55:37.078Z,9.53
2018-05-18T07:58:05.437Z,9.73
2018-05-18T08:00:33.086Z,10.70
2018-05-18T08:03:00.725Z,9.50
2018-05-18T08:05:28.389Z,8.53
2018-05-18T08:07:56.201Z,9.30
2018-05-18T08:10:23.758Z,8.43
2018-05-18T08:12:51.863Z,8.07
2018-05-18T08:15:19.596Z,7.77
2018-05-18T08:17:47.667Z,9.03
2018-05-18T08:20:15.719Z,8.17
2018-05-18T08:22:43.356Z,9.97
2018-05-18T08:25:11.014Z,8.03
2018-05-18T08:27:38.684Z,8.77
2018-05-18T08:30:06.332Z,7.87
2018-05-18T08:32:33.984Z,7.23
2018-05-18T08:35:01.655Z,7.67
2018-05-18T08:37:29.301Z,7.60
2018-05-18T08:39:56.950Z,6.13
2018-05-18T08:42:24.612Z,7.77
2018-05-18T08:44:52.353Z,7.20
2018-05-18T08:47:20.417Z,7.40
2018-05-18T08:49:48.080Z,7.60
2018-05-18T08:52:16.151Z,7.90
2018-05-18T08:54:44.195Z,7.20
2018-05-18T08:57:11.866Z,7.73
2018-05-18T08:59:39.584Z,8.27
2018-05-18T09:02:07.244Z,8.50
2018-05-18T09:04:34.916Z,8.23
2018-05-18T09:07:02.646Z,9.27
2018-05-18T09:09:30.714Z,8.47
2018-05-18T09:11:58.793Z,7.70
2018-05-18T09:14:26.963Z,8.20
2018-05-18T09:16:55.072Z,7.93
2018-05-18T09:19:22.763Z,9.17
2018-05-18T09:21:50.398Z,8.53
2018-05-18T09:24:18.160Z,7.83
2018-05-18T09:26:45.881Z,8.87
2018-05-18T09:29:13.959Z,8.30
2018-05-18T09:31:42.043Z,7.67
2018-05-18T09:34:10.225Z,8.60
2018-05-18T09:36:38.244Z,8.40
2018-05-18T09:39:05.931Z,9.80
2018-05-18T09:41:33.595Z,8.53
2018-05-18T09:44:01.270Z,8.37
2018-05-18T09:46:29.309Z,8.37
2018-05-18T09:48:56.976Z,8.70
2018-05-18T09:51:24.621Z,9.23
2018-05-18T09:53:52.262Z,8.57
2018-05-18T09:56:19.987Z,8.07
2018-05-18T09:58:48.019Z,8.40
2018-05-18T10:01:15.660Z,8.00
2018-05-18T10:03:43.413Z,7.93
2018-05-18T10:06:11.128Z,7.50
2018-05-18T10:08:39.219Z,7.40
2018-05-18T10:11:07.265Z,7.80
2018-05-18T10:13:34.944Z,7.80
2018-05-18T10:16:02.978Z,8.30
2018-05-18T10:18:30.651Z,7.60
2018-05-18T10:20:58.290Z,7.37
2018-05-18T10:23:25.998Z,7.03
2018-05-18T10:25:53.673Z,7.10
2018-05-18T10:28:28.318Z,6.70
2018-05-18T10:30:56.062Z,7.47
2018-05-18T10:33:23.689Z,5.87
2018-05-18T10:35:51.337Z,8.17
2018-05-18T10:38:19.006Z,7.00
2018-05-18T10:40:46.707Z,6.30
2018-05-18T10:43:14.782Z,6.40
2018-05-18T10:45:42.979Z,6.67
2018-05-18T10:48:10.730Z,8.00
2018-05-18T10:50:38.763Z,8.40
2018-05-18T10:53:06.476Z,7.50
2018-05-18T10:55:34.129Z,6.87
2018-05-18T10:58:01.908Z,6.67
2018-05-18T11:00:29.705Z,7.30
2018-05-18T11:02:57.409Z,7.07
2018-05-18T11:05:25.584Z,6.77
2018-05-18T11:07:53.154Z,6.57
2018-05-18T11:10:21.213Z,8.03
2018-05-18T11:12:49.250Z,7.00
2018-05-18T11:15:16.957Z,7.50
2018-05-18T11:17:45.020Z,7.30
2018-05-18T11:20:13.092Z,6.77
2018-05-18T11:22:41.150Z,9.13
2018-05-18T11:25:08.921Z,6.70
2018-05-18T11:27:36.548Z,7.30
2018-05-18T11:30:04.249Z,6.87
2018-05-18T11:32:32.284Z,6.90
2018-05-18T11:34:59.916Z,7.70
2018-05-18T11:37:27.640Z,8.10
2018-05-18T11:39:55.715Z,6.73
2018-05-18T11:42:23.750Z,7.80
2018-05-18T11:44:51.455Z,7.67
2018-05-18T11:47:19.486Z,7.20
2018-05-18T11:49:47.155Z,7.47
2018-05-18T11:52:14.837Z,9.03
2018-05-18T11:54:42.558Z,8.30
2018-05-18T11:57:10.192Z,8.13
2018-05-18T11:59:37.869Z,7.87
2018-05-18T12:02:05.536Z,7.87
2018-05-18T12:04:33.173Z,7.90
2018-05-18T12:07:00.816Z,8.37
2018-05-18T12:09:28.856Z,8.40
2018-05-18T12:11:56.552Z,9.30
2018-05-18T12:14:24.606Z,7.93
2018-05-18T12:16:52.295Z,8.30
2018-05-18T12:19:20.355Z,7.87
2018-05-18T12:21:48.405Z,8.77
2018-05-18T12:24:16.050Z,8.53
2018-05-18T12:26:43.754Z,9.53
2018-05-18T12:29:11.826Z,10.10
2018-05-18T12:31:39.954Z,8.20
2018-05-18T12:34:07.509Z,8.00
2018-05-18T12:36:35.228Z,9.53
2018-05-18T12:39:03.261Z,8.60
2018-05-18T12:41:30.905Z,9.60
2018-05-18T12:43:58.927Z,9.97
2018-05-18T12:46:26.961Z,8.70
2018-05-18T12:48:54.601Z,8.00
2018-05-18T12:51:22.314Z,9.30
2018-05-18T12:53:49.964Z,8.17
2018-05-18T12:56:17.614Z,9.70
2018-05-18T12:58:45.270Z,8.87
2018-05-18T13:01:13.007Z,8.27
2018-05-18T13:03:40.741Z,9.13
2018-05-18T13:06:08.795Z,9.77
2018-05-18T13:08:36.870Z,9.30
2018-05-18T13:11:04.955Z,9.43
2018-05-18T13:13:33.013Z,9.50
2018-05-18T13:16:00.713Z,8.80
2018-05-18T13:18:28.341Z,11.00
2018-05-18T13:20:56.409Z,9.00
2018-05-18T13:23:24.048Z,8.80
2018-05-18T13:25:51.744Z,9.67
2018-05-18T13:28:19.797Z,10.50
2018-05-18T13:30:47.856Z,10.67
2018-05-18T13:33:15.494Z,10.57
2018-05-18T13:35:43.145Z,9.60
2018-05-18T13:38:10.864Z,8.97
2018-05-18T13:40:38.897Z,8.47
2018-05-18T13:43:06.573Z,9.17
2018-05-18T13:45:34.222Z,9.77
2018-05-18T13:48:01.929Z,9.60
2018-05-18T13:50:29.988Z,9.77
2018-05-18T13:52:58.027Z,9.90
2018-05-18T13:55:25.660Z,9.80
2018-05-18T13:57:53.392Z,10.03
2018-05-18T14:00:21.497Z,9.50
2018-05-18T14:02:49.310Z,11.07
2018-05-18T14:05:17.322Z,10.23
2018-05-18T14:07:44.958Z,12.13
2018-05-18T14:10:12.609Z,10.03
2018-05-18T14:12:40.575Z,10.30
2018-05-18T14:15:08.224Z,17.60
2018-05-18T14:17:35.874Z,16.30
2018-05-18T14:20:03.580Z,14.47
2018-05-18T14:22:31.637Z,10.93
2018-05-18T14:24:59.427Z,10.63
2018-05-18T14:27:27.511Z,10.27
2018-05-18T14:29:55.552Z,11.53
2018-05-18T14:32:23.234Z,11.47
2018-05-18T14:34:51.295Z,10.13
2018-05-18T14:37:19.358Z,11.47
2018-05-18T14:39:47.002Z,11.00
2018-05-18T14:42:14.684Z,11.60
2018-05-18T14:44:42.384Z,12.50
2018-05-18T14:47:10.041Z,12.40
2018-05-18T14:49:37.738Z,11.23
2018-05-18T14:52:05.389Z,12.20
2018-05-18T14:54:33.027Z,11.07
2018-05-18T14:57:00.800Z,12.33
2018-05-18T14:59:28.529Z,11.30
2018-05-18T15:01:56.615Z,13.50
2018-05-18T15:04:24.290Z,11.47
2018-05-18T15:06:52.059Z,12.87
2018-05-18T15:09:19.789Z,12.50
2018-05-18T15:11:47.895Z,13.27
2018-05-18T15:14:15.590Z,13.30
2018-05-18T15:16:43.249Z,12.43
2018-05-18T15:19:10.963Z,11.30
2018-05-18T15:21:38.709Z,13.17
2018-05-18T15:24:06.480Z,12.00
2018-05-18T15:26:34.150Z,13.40
2018-05-18T15:29:02.198Z,14.40
2018-05-18T15:31:30.617Z,13.93
2018-05-18T15:33:58.349Z,12.67
2018-05-18T15:36:26.017Z,15.20
2018-05-18T15:38:54.100Z,12.53
2018-05-18T15:41:22.153Z,12.80
2018-05-18T15:43:49.824Z,12.53
2018-05-18T15:46:17.905Z,13.50
2018-05-18T15:48:45.956Z,12.43
2018-05-18T15:51:13.597Z,12.50
2018-05-18T15:53:41.251Z,11.10
2018-05-18T15:56:08.925Z,11.90
2018-05-18T15:58:36.572Z,12.80
2018-05-18T16:01:04.259Z,13.03
2018-05-18T16:03:31.938Z,12.83
2018-05-18T16:05:59.608Z,12.27
2018-05-18T16:08:27.657Z,12.90
2018-05-18T16:10:55.342Z,13.07
2018-05-18T16:13:23.381Z,14.53
2018-05-18T16:15:51.069Z,13.17
2018-05-18T16:18:19.141Z,13.17
2018-05-18T16:20:47.239Z,14.60
2018-05-18T16:23:14.978Z,14.30
2018-05-18T16:25:43.033Z,13.90
2018-05-18T16:28:10.703Z,13.97
2018-05-18T16:30:38.374Z,14.57
2018-05-18T16:33:06.475Z,13.80
2018-05-18T16:35:34.205Z,13.53
2018-05-18T16:38:01.907Z,14.57
2018-05-18T16:40:29.582Z,15.10
2018-05-18T16:42:57.249Z,15.13
2018-05-18T16:45:24.886Z,16.07
2018-05-18T16:47:52.634Z,15.03
2018-05-18T16:50:21.083Z,14.90
2018-05-18T16:52:48.808Z,15.07
2018-05-18T16:55:16.411Z,14.23
2018-05-18T16:57:44.093Z,14.60
2018-05-18T17:00:12.197Z,13.77
2018-05-18T17:02:39.925Z,15.23
2018-05-18T17:05:07.959Z,15.30
2018-05-18T17:07:35.662Z,14.10
2018-05-18T17:10:03.734Z,15.10
2018-05-18T17:12:31.810Z,15.80
2018-05-18T17:14:59.433Z,14.47
2018-05-18T17:17:27.254Z,15.77
2018-05-18T17:19:54.901Z,15.00
2018-05-18T17:22:22.961Z,13.87
2018-05-18T17:24:50.643Z,14.57
2018-05-18T17:27:18.308Z,14.97
2018-05-18T17:29:45.948Z,14.97
2018-05-18T17:32:14.003Z,15.30
2018-05-18T17:34:41.660Z,15.17
2018-05-18T17:37:09.313Z,15.40
2018-05-18T17:39:36.982Z,15.10
2018-05-18T17:42:05.632Z,15.70
2018-05-18T17:44:33.344Z,13.47
2018-05-18T17:47:01.008Z,14.87
2018-05-18T17:49:28.648Z,15.30
2018-05-18T17:51:56.353Z,14.03
2018-05-18T17:54:24.461Z,14.07
2018-05-18T17:56:52.200Z,13.50
2018-05-18T17:59:19.902Z,15.27
2018-05-18T18:01:47.596Z,14.43
2018-05-18T18:04:15.371Z,15.10
2018-05-18T18:06:43.418Z,15.70
2018-05-18T18:09:11.108Z,14.87
2018-05-18T18:11:39.151Z,16.13
2018-05-18T18:14:06.840Z,14.70
2018-05-18T18:16:35.872Z,14.50
2018-05-18T18:19:03.513Z,15.30
2018-05-18T18:21:31.155Z,15.00
2018-05-18T18:23:59.218Z,15.17
2018-05-18T18:26:26.900Z,15.50
2018-05-18T18:28:54.971Z,15.00
2018-05-18T18:31:23.039Z,15.20
2018-05-18T18:33:51.077Z,15.93
2018-05-18T18:36:18.787Z,15.23
2018-05-18T18:38:46.384Z,15.30
2018-05-18T18:41:14.094Z,17.10
2018-05-18T18:43:42.179Z,15.97
2018-05-18T18:46:10.232Z,15.63
2018-05-18T18:48:38.284Z,17.80
2018-05-18T18:51:06.014Z,16.70
2018-05-18T18:53:33.681Z,15.33
2018-05-18T18:56:01.389Z,15.17
2018-05-18T18:58:29.464Z,16.27
2018-05-18T19:00:57.643Z,17.20
2018-05-18T19:03:25.589Z,16.93
2018-05-18T19:05:53.233Z,17.60
2018-05-18T19:08:20.972Z,15.43
2018-05-18T19:10:48.690Z,15.30
2018-05-18T19:13:16.328Z,15.00
2018-05-18T19:15:43.997Z,16.03
2018-05-18T19:18:11.644Z,17.13
2018-05-18T19:20:39.305Z,16.20
2018-05-18T19:23:06.965Z,16.30
2018-05-18T19:25:34.608Z,16.97
2018-05-18T19:28:02.257Z,15.70
2018-05-18T19:30:29.926Z,16.37
2018-05-18T19:32:57.649Z,17.27
2018-05-18T19:35:25.328Z,15.77
2018-05-18T19:37:53.399Z,17.30
2018-05-18T19:40:21.473Z,16.90
2018-05-18T19:42:49.517Z,17.60
2018-05-18T19:45:17.205Z,18.07
2018-05-18T19:47:45.273Z,18.13
2018-05-18T19:50:13.302Z,17.50
2018-05-18T19:52:41.004Z,16.80
2018-05-18T19:55:09.035Z,19.20
2018-05-18T19:57:36.754Z,17.87
2018-05-18T20:00:04.371Z,17.43
2018-05-18T20:02:32.095Z,18.57
2018-05-18T20:04:59.733Z,17.70
2018-05-18T20:07:27.812Z,18.13
2018-05-18T20:09:55.573Z,17.80
2018-05-18T20:12:23.640Z,18.00
2018-05-18T20:14:51.695Z,19.23
2018-05-18T20:17:19.338Z,19.50
2018-05-18T20:19:47.087Z,18.87
2018-05-18T20:22:14.664Z,19.87
2018-05-18T20:24:42.319Z,20.20
2018-05-18T20:27:10.013Z,18.50
2018-05-18T20:29:38.115Z,22.17
2018-05-18T20:32:05.763Z,20.00
2018-05-18T20:34:33.393Z,19.07
2018-05-18T20:37:01.107Z,19.43
2018-05-18T20:39:28.744Z,21.10
2018-05-18T20:41:56.851Z,19.80
2018-05-18T20:44:24.551Z,19.97
2018-05-18T20:46:52.203Z,20.93
2018-05-18T20:49:19.845Z,23.23
2018-05-18T20:51:47.619Z,21.23
2018-05-18T20:54:15.614Z,22.07
2018-05-18T20:56:43.257Z,22.43
2018-05-18T20:59:10.922Z,25.60
2018-05-18T21:01:38.552Z,25.23
2018-05-18T21:04:06.193Z,25.87
2018-05-18T21:06:33.934Z,26.90
2018-05-18T21:09:01.605Z,28.37
2018-05-18T21:11:29.644Z,25.27
2018-05-18T21:13:57.366Z,29.80
2018-05-18T21:16:25.013Z,27.20
2018-05-18T21:18:52.679Z,27.93
2018-05-18T21:21:20.423Z,30.10
2018-05-18T21:23:48.469Z,29.30
2018-05-18T21:26:16.158Z,28.60
2018-05-18T21:28:44.219Z,30.10
2018-05-18T21:31:11.874Z,33.10
2018-05-18T21:33:39.519Z,29.90
2018-05-18T21:36:07.227Z,30.23
2018-05-18T21:38:35.259Z,29.70
2018-05-18T21:41:02.936Z,28.93
2018-05-18T21:43:30.604Z,31.10
2018-05-18T21:45:58.245Z,33.73
2018-05-18T21:48:25.886Z,32.10
2018-05-18T21:50:53.588Z,32.53
2018-05-18T21:53:21.227Z,35.40
2018-05-18T21:55:49.295Z,32.50
2018-05-18T21:58:16.986Z,32.37
2018-05-18T22:00:44.618Z,31.33
2018-05-18T22:03:12.264Z,28.40
2018-05-18T22:05:39.920Z,26.90
2018-05-18T22:08:07.562Z,26.90
2018-05-18T22:10:35.303Z,25.40
2018-05-18T22:13:03.344Z,25.47
2018-05-18T22:15:31.040Z,24.90
2018-05-18T22:17:58.687Z,26.20
2018-05-18T22:20:26.360Z,25.53
2018-05-18T22:22:54.398Z,27.03
2018-05-18T22:25:22.053Z,25.93
2018-05-18T22:27:49.713Z,27.73
2018-05-18T22:30:17.365Z,28.00
2018-05-18T22:32:45.079Z,28.83
2018-05-18T22:35:13.134Z,28.70
2018-05-18T22:37:40.773Z,28.30
2018-05-18T22:40:08.421Z,26.67
2018-05-18T22:42:36.091Z,28.87
2018-05-18T22:45:03.772Z,28.30
2018-05-18T22:47:31.370Z,28.13
2018-05-18T22:49:59.434Z,28.00
2018-05-18T22:52:27.485Z,28.47
2018-05-18T22:54:55.157Z,27.00
2018-05-18T22:57:23.241Z,28.10
2018-05-18T22:59:51.270Z,28.00
2018-05-18T23:02:18.911Z,27.50
2018-05-18T23:04:46.621Z,26.23
2018-05-18T23:07:14.261Z,29.67
2018-05-18T23:09:41.927Z,27.07
2018-05-18T23:12:09.585Z,27.50
2018-05-18T23:14:37.283Z,27.40
2018-05-18T23:17:05.305Z,25.10
2018-05-18T23:19:33.030Z,27.57
2018-05-18T23:22:00.781Z,29.10
2018-05-18T23:24:28.822Z,27.60
2018-05-18T23:26:56.501Z,27.83
2018-05-18T23:29:24.141Z,27.60
2018-05-18T23:31:51.796Z,25.03
2018-05-18T23:34:19.486Z,25.10
2018-05-18T23:36:47.195Z,25.73
2018-05-18T23:39:14.846Z,26.80
2018-05-18T23:41:42.504Z,28.40
2018-05-18T23:44:10.142Z,27.53
2018-05-18T23:46:38.213Z,26.03
2018-05-18T23:49:05.874Z,27.00
2018-05-18T23:51:33.545Z,26.60
2018-05-18T23:54:01.629Z,29.90
2018-05-18T23:56:29.301Z,30.10
2018-05-18T23:58:56.973Z,29.43
